createdAt,value
2018-08-03T00:00:11.434Z,2.83
2018-08-03T00:05:15.018Z,3.37
2018-08-03T00:10:18.578Z,2.87
2018-08-03T00:15:22.075Z,2.87
2018-08-03T00:20:25.705Z,3.10
2018-08-03T00:25:29.303Z,2.83
2018-08-03T00:30:32.987Z,3.10
2018-08-03T00:35:36.503Z,2.98
2018-08-03T00:40:40.057Z,3.42
2018-08-03T00:45:43.568Z,3.47
2018-08-03T00:50:48.461Z,3.70
2018-08-03T00:55:52.220Z,3.02
2018-08-03T01:00:55.857Z,3.22
2018-08-03T01:05:59.338Z,2.95
2018-08-03T01:11:03.306Z,3.12
2018-08-03T01:16:07.426Z,3.20
2018-08-03T01:21:11.019Z,3.00
2018-08-03T01:26:14.726Z,3.13
2018-08-03T01:31:18.223Z,3.35
2018-08-03T01:36:21.876Z,3.42
2018-08-03T01:41:26.010Z,3.05
2018-08-03T01:46:29.692Z,3.30
2018-08-03T01:51:33.227Z,3.20
2018-08-03T01:56:36.849Z,3.52
2018-08-03T02:01:40.384Z,3.87
2018-08-03T02:06:43.967Z,3.33
2018-08-03T02:11:47.474Z,3.83
2018-08-03T02:16:51.406Z,3.90
2018-08-03T02:21:55.146Z,3.90
2018-08-03T02:26:58.731Z,3.67
2018-08-03T02:32:02.514Z,3.72
2018-08-03T02:37:06.486Z,3.90
2018-08-03T02:42:10.002Z,3.58
2018-08-03T02:47:13.673Z,4.00
2018-08-03T02:52:17.165Z,3.72
2018-08-03T02:57:20.830Z,3.70
2018-08-03T03:02:24.331Z,3.50
2018-08-03T03:07:27.844Z,3.80
2018-08-03T03:12:31.430Z,3.55
2018-08-03T03:17:35.137Z,3.87
2018-08-03T03:22:38.650Z,3.85
2018-08-03T03:27:42.237Z,3.80
2018-08-03T03:32:46.469Z,3.77
2018-08-03T03:54:21.669Z,3.47
2018-08-03T03:59:27.766Z,3.58
2018-08-03T04:04:34.797Z,3.33
2018-08-03T04:09:39.365Z,3.45
2018-08-03T04:14:43.813Z,3.40
2018-08-03T04:19:47.516Z,3.30
2018-08-03T04:24:51.214Z,3.37
2018-08-03T04:29:55.202Z,3.40
2018-08-03T04:34:59.170Z,3.52
2018-08-03T04:56:25.910Z,2.98
2018-08-03T05:01:29.456Z,3.58
2018-08-03T05:06:33.157Z,3.30
2018-08-03T05:11:36.721Z,3.30
2018-08-03T05:16:41.064Z,2.98
2018-08-03T05:21:44.661Z,2.83
2018-08-03T05:26:48.221Z,3.00
2018-08-03T05:31:51.904Z,2.83
2018-08-03T05:36:55.596Z,2.77
2018-08-03T05:41:59.206Z,2.80
2018-08-03T05:47:03.025Z,2.70
2018-08-03T05:52:06.670Z,2.83
2018-08-03T05:57:10.190Z,2.98
2018-08-03T06:02:14.895Z,2.67
2018-08-03T06:07:18.701Z,2.67
2018-08-03T06:12:22.317Z,2.62
2018-08-03T06:17:26.421Z,3.30
2018-08-03T06:22:30.418Z,2.98
2018-08-03T06:27:34.394Z,3.47
2018-08-03T06:32:38.526Z,3.70
2018-08-03T06:37:43.170Z,4.17
2018-08-03T06:42:46.692Z,4.05
2018-08-03T06:47:50.282Z,4.33
2018-08-03T06:52:54.265Z,4.17
2018-08-03T06:57:57.793Z,4.53
2018-08-03T07:03:01.303Z,4.00
2018-08-03T07:08:05.035Z,4.10
2018-08-03T07:13:08.618Z,5.15
2018-08-03T07:18:12.202Z,4.30
2018-08-03T07:23:15.751Z,4.50
2018-08-03T07:28:19.958Z,4.33
2018-08-03T07:33:23.518Z,4.28
2018-08-03T07:38:27.198Z,4.72
2018-08-03T07:43:31.732Z,4.55
2018-08-03T07:48:36.322Z,4.70
2018-08-03T07:53:40.614Z,4.60
2018-08-03T07:58:45.625Z,4.20
2018-08-03T08:03:49.947Z,4.50
2018-08-03T08:08:54.512Z,4.58
2018-08-03T08:13:59.022Z,4.72
2018-08-03T08:19:04.377Z,4.12
2018-08-03T08:24:08.621Z,4.70
2018-08-03T08:29:13.487Z,4.40
2018-08-03T08:34:21.771Z,4.85
2018-08-03T08:39:26.410Z,5.08
2018-08-03T08:44:31.003Z,4.25
2018-08-03T08:49:35.539Z,4.80
2018-08-03T08:54:40.332Z,4.92
2018-08-03T08:59:45.447Z,4.47
2018-08-03T09:04:49.017Z,5.05
2018-08-03T09:09:52.763Z,4.78
2018-08-03T09:14:56.638Z,4.40
2018-08-03T09:20:06.288Z,4.30
2018-08-03T09:25:10.307Z,4.03
2018-08-03T09:30:14.121Z,4.17
2018-08-03T09:35:17.918Z,4.03
2018-08-03T09:40:21.487Z,4.10
2018-08-03T09:45:25.132Z,4.23
2018-08-03T09:50:29.019Z,4.10
2018-08-03T09:55:33.210Z,3.90
2018-08-03T10:00:42.504Z,4.00
2018-08-03T10:05:46.453Z,3.85
2018-08-03T10:10:50.204Z,3.87
2018-08-03T10:15:54.203Z,3.50
2018-08-03T10:20:59.400Z,4.22
2018-08-03T10:26:03.330Z,3.95
2018-08-03T10:31:07.998Z,4.67
2018-08-03T10:36:12.148Z,4.08
2018-08-03T10:41:16.220Z,4.00
2018-08-03T10:46:21.167Z,3.75
2018-08-03T10:51:25.662Z,3.75
2018-08-03T10:56:29.805Z,4.15
2018-08-03T11:01:34.246Z,4.30
2018-08-03T11:06:38.144Z,4.10
2018-08-03T11:11:42.398Z,4.20
2018-08-03T11:16:46.166Z,4.22
2018-08-03T11:21:50.458Z,4.55
2018-08-03T11:26:54.302Z,4.25
2018-08-03T11:31:58.435Z,4.20
2018-08-03T11:37:02.560Z,4.07
2018-08-03T11:42:07.535Z,3.70
2018-08-03T11:47:12.174Z,4.10
2018-08-03T11:52:16.553Z,4.15
2018-08-03T11:57:20.763Z,4.28
2018-08-03T12:02:24.582Z,4.83
2018-08-03T12:07:29.380Z,3.98
2018-08-03T12:12:33.996Z,4.20
2018-08-03T12:17:37.535Z,4.08
2018-08-03T12:22:41.855Z,3.62
2018-08-03T12:27:45.787Z,3.77
2018-08-03T12:32:49.916Z,3.90
2018-08-03T12:37:53.837Z,3.47
2018-08-03T12:42:57.954Z,3.85
2018-08-03T12:48:02.131Z,3.65
2018-08-03T12:53:06.721Z,3.85
2018-08-03T12:58:11.916Z,3.77
2018-08-03T13:03:15.990Z,4.20
2018-08-03T13:08:21.028Z,4.20
2018-08-03T13:13:24.870Z,3.72
2018-08-03T13:18:29.881Z,3.85
2018-08-03T13:23:33.801Z,3.80
2018-08-03T13:28:38.637Z,3.85
2018-08-03T13:33:42.648Z,4.10
2018-08-03T13:38:47.945Z,4.50
2018-08-03T13:43:52.333Z,4.90
2018-08-03T13:48:56.302Z,4.70
2018-08-03T13:54:01.515Z,4.65
2018-08-03T13:59:06.901Z,4.83
2018-08-03T14:04:11.614Z,4.60
2018-08-03T14:09:16.275Z,4.97
2018-08-03T14:14:22.176Z,4.95
2018-08-03T14:19:26.773Z,5.12
2018-08-03T14:24:31.858Z,5.55
2018-08-03T14:29:36.995Z,5.53
2018-08-03T14:34:41.258Z,5.47
2018-08-03T14:39:45.534Z,4.80
2018-08-03T14:44:53.175Z,4.75
2018-08-03T14:49:57.722Z,5.08
2018-08-03T14:55:04.824Z,5.23
2018-08-03T15:00:08.726Z,5.33
2018-08-03T15:05:13.313Z,5.45
2018-08-03T15:10:17.886Z,5.57
2018-08-03T15:15:22.295Z,5.20
2018-08-03T15:20:27.256Z,5.50
2018-08-03T15:25:31.713Z,5.17
2018-08-03T15:30:35.971Z,5.70
2018-08-03T15:35:41.180Z,5.35
2018-08-03T15:40:45.733Z,5.20
2018-08-03T15:45:50.079Z,5.55
2018-08-03T15:50:56.211Z,5.28
2018-08-03T15:56:00.287Z,5.28
2018-08-03T16:01:04.617Z,5.78
2018-08-03T16:06:08.902Z,5.30
2018-08-03T16:11:13.628Z,5.12
2018-08-03T16:16:18.172Z,5.40
2018-08-03T16:21:21.927Z,6.25
2018-08-03T16:26:26.050Z,5.78
2018-08-03T16:31:29.845Z,5.53
2018-08-03T16:36:33.852Z,5.08
2018-08-03T16:41:38.006Z,5.33
2018-08-03T16:46:43.755Z,5.30
2018-08-03T16:51:49.200Z,5.25
2018-08-03T16:56:53.485Z,5.33
2018-08-03T17:01:57.968Z,5.30
2018-08-03T17:07:02.186Z,5.90
2018-08-03T17:12:06.289Z,5.20
2018-08-03T17:17:10.358Z,5.40
2018-08-03T17:22:14.455Z,5.75
2018-08-03T17:27:18.984Z,5.00
2018-08-03T17:32:23.123Z,5.87
2018-08-03T17:37:27.052Z,5.53
2018-08-03T17:42:31.818Z,6.80
2018-08-03T17:47:35.827Z,5.65
2018-08-03T17:52:39.758Z,5.40
2018-08-03T17:57:43.926Z,5.55
2018-08-03T18:02:48.161Z,5.37
2018-08-03T18:07:52.290Z,5.55
2018-08-03T18:12:56.757Z,5.33
2018-08-03T18:18:00.796Z,5.42
2018-08-03T18:23:04.942Z,5.78
2018-08-03T18:28:08.883Z,5.55
2018-08-03T18:33:12.999Z,5.45
2018-08-03T18:38:17.092Z,5.83
2018-08-03T18:43:21.986Z,5.47
2018-08-03T18:48:25.962Z,5.90
2018-08-03T18:53:30.722Z,6.12
2018-08-03T18:58:34.670Z,5.33
2018-08-03T19:03:39.354Z,5.70
2018-08-03T19:08:43.595Z,6.25
2018-08-03T19:13:47.893Z,6.40
2018-08-03T19:18:51.919Z,6.17
2018-08-03T19:23:55.763Z,6.15
2018-08-03T19:29:00.126Z,7.10
2018-08-03T19:34:04.420Z,6.72
2018-08-03T19:39:09.926Z,7.17
2018-08-03T19:44:14.464Z,7.50
2018-08-03T19:49:17.965Z,7.60
2018-08-03T19:54:22.746Z,7.53
2018-08-03T19:59:26.971Z,7.35
2018-08-03T20:04:30.853Z,7.58
2018-08-03T20:09:34.365Z,7.80
2018-08-03T20:14:38.028Z,7.47
2018-08-03T20:19:41.661Z,8.05
2018-08-03T20:24:46.983Z,7.92
2018-08-03T20:29:51.129Z,7.62
2018-08-03T20:34:54.741Z,7.35
2018-08-03T20:39:58.325Z,7.22
2018-08-03T20:45:02.617Z,8.35
2018-08-03T20:50:06.392Z,7.45
2018-08-03T20:55:10.556Z,8.30
2018-08-03T21:00:14.302Z,7.87
2018-08-03T21:05:17.981Z,7.60
2018-08-03T21:10:22.035Z,8.47
2018-08-03T21:15:25.985Z,8.13
2018-08-03T21:20:29.908Z,8.00
2018-08-03T21:25:33.656Z,8.20
2018-08-03T21:30:37.259Z,7.70
2018-08-03T21:35:41.102Z,6.92
2018-08-03T21:40:45.421Z,6.70
2018-08-03T21:45:49.148Z,7.42
2018-08-03T21:50:52.942Z,7.25
2018-08-03T21:55:56.625Z,6.92
2018-08-03T22:01:00.671Z,7.45
2018-08-03T22:06:04.464Z,7.25
2018-08-03T22:11:08.078Z,7.20
2018-08-03T22:16:11.703Z,6.83
2018-08-03T22:21:15.233Z,7.10
2018-08-03T22:26:18.774Z,6.60
2018-08-03T22:31:22.349Z,6.33
2018-08-03T22:36:25.921Z,6.90
2018-08-03T22:41:29.486Z,6.05
2018-08-03T22:46:33.680Z,6.87
2018-08-03T22:51:37.269Z,6.35
2018-08-03T22:56:41.167Z,5.90
2018-08-03T23:01:44.770Z,5.92
2018-08-03T23:06:48.674Z,5.97
2018-08-03T23:11:52.529Z,5.50
2018-08-03T23:16:56.523Z,5.35
2018-08-03T23:22:00.442Z,5.87
2018-08-03T23:27:04.554Z,5.25
2018-08-03T23:32:08.259Z,5.30
2018-08-03T23:37:12.213Z,5.37
2018-08-03T23:42:16.887Z,4.75
2018-08-03T23:47:21.101Z,5.37
2018-08-03T23:52:25.109Z,5.20
2018-08-03T23:57:29.208Z,4.93
